createdAt,value
2022-12-16T00:04:18.897Z,88.57
2022-12-16T00:06:45.623Z,91.25
2022-12-16T00:09:12.192Z,88.66
2022-12-16T00:58:06.093Z,93.68
2022-12-16T01:00:32.759Z,92.74
2022-12-16T01:02:59.625Z,91.92
2022-12-16T01:19:57.868Z,96.53
2022-12-16T01:22:24.779Z,94.48
2022-12-16T01:24:51.360Z,93.62
2022-12-16T01:31:21.051Z,93.59
2022-12-16T01:33:47.967Z,94.48
2022-12-16T01:36:14.537Z,94.44
2022-12-16T01:38:44.006Z,94.28
2022-12-16T01:41:12.250Z,94.10
2022-12-16T01:43:40.778Z,93.74
2022-12-16T01:46:07.327Z,93.99
2022-12-16T01:48:52.665Z,92.86
2022-12-16T01:51:35.677Z,92.26
2022-12-16T01:54:15.124Z,93.11
2022-12-16T01:56:49.193Z,93.14
2022-12-16T02:07:15.099Z,95.18
2022-12-16T02:09:41.659Z,95.00
2022-12-16T02:12:34.069Z,97.76
2022-12-16T02:15:41.835Z,97.97
2022-12-16T02:18:33.968Z,99.23
2022-12-16T02:21:18.890Z,96.48
2022-12-16T02:24:20.967Z,97.59
2022-12-16T02:26:50.412Z,95.95
2022-12-16T02:29:26.463Z,98.17
2022-12-16T02:34:32.484Z,100.00
2022-12-16T02:37:49.475Z,100.00
2022-12-16T02:40:32.994Z,99.97
2022-12-16T02:43:12.886Z,99.90
2022-12-16T02:48:14.735Z,97.01
2022-12-16T02:50:48.591Z,96.88
2022-12-16T02:53:15.683Z,96.01
2022-12-16T02:55:49.175Z,95.72
2022-12-16T02:58:57.934Z,97.06
2022-12-16T03:02:33.582Z,93.85
2022-12-16T03:05:36.402Z,93.04
2022-12-16T03:08:07.492Z,90.92
2022-12-16T03:10:42.899Z,92.92
2022-12-16T03:16:00.362Z,93.93
2022-12-16T03:18:27.506Z,93.21
2022-12-16T03:26:09.373Z,93.78
2022-12-16T03:29:20.509Z,91.11
2022-12-16T03:31:52.932Z,91.34
2022-12-16T03:34:32.925Z,95.21
2022-12-16T03:37:37.681Z,93.33
2022-12-16T03:40:30.018Z,92.69
2022-12-16T03:42:57.534Z,90.57
2022-12-16T03:45:27.955Z,88.96
2022-12-16T03:58:48.655Z,90.92
2022-12-16T04:01:15.646Z,93.20
2022-12-16T04:03:42.378Z,92.65
2022-12-16T04:22:50.129Z,93.63
2022-12-16T04:25:37.152Z,96.13
2022-12-16T04:28:03.845Z,94.85
2022-12-16T04:30:34.787Z,92.41
2022-12-16T04:33:24.004Z,92.33
2022-12-16T04:36:09.827Z,91.83
2022-12-16T04:38:55.228Z,93.80
2022-12-16T04:41:40.082Z,93.94
2022-12-16T04:44:25.493Z,92.30
2022-12-16T04:47:10.949Z,93.09
2022-12-16T04:55:19.723Z,93.00
2022-12-16T04:58:10.912Z,93.10
2022-12-16T05:00:56.393Z,93.89
2022-12-16T05:03:41.866Z,91.81
2022-12-16T05:10:24.062Z,95.17
2022-12-16T05:21:21.718Z,95.02
2022-12-16T05:27:08.566Z,96.93
2022-12-16T05:29:53.845Z,94.05
2022-12-16T05:32:38.903Z,93.18
2022-12-16T05:35:24.346Z,90.96
2022-12-16T05:38:09.231Z,91.38
2022-12-16T05:44:50.500Z,89.15
2022-12-16T05:47:35.772Z,89.63
2022-12-16T05:50:20.917Z,88.53
2022-12-16T05:53:14.196Z,88.29
2022-12-16T05:56:00.091Z,88.36
2022-12-16T05:58:46.221Z,88.38
2022-12-16T06:01:32.262Z,91.02
2022-12-16T06:04:18.225Z,90.88
2022-12-16T06:07:03.802Z,89.17
2022-12-16T06:09:54.744Z,89.37
2022-12-16T06:12:42.005Z,86.54
2022-12-16T06:15:27.931Z,89.08
2022-12-16T06:18:13.336Z,89.27
2022-12-16T06:21:00.111Z,89.68
2022-12-16T06:23:45.068Z,87.38
2022-12-16T06:26:30.331Z,86.59
2022-12-16T06:29:15.202Z,85.26
2022-12-16T06:32:00.207Z,87.80
2022-12-16T06:34:45.531Z,90.04
2022-12-16T06:37:31.041Z,88.34
2022-12-16T06:40:16.240Z,89.31
2022-12-16T06:43:01.725Z,88.95
2022-12-16T06:45:47.058Z,90.58
2022-12-16T06:48:32.134Z,89.46
2022-12-16T06:51:16.942Z,87.70
2022-12-16T06:54:02.380Z,92.58
2022-12-16T06:56:47.351Z,91.03
2022-12-16T06:59:35.211Z,86.75
2022-12-16T07:02:20.386Z,88.42
2022-12-16T07:05:06.626Z,89.22
2022-12-16T07:07:52.382Z,88.93
2022-12-16T07:10:37.757Z,88.46
2022-12-16T07:13:22.729Z,88.61
2022-12-16T07:16:07.753Z,87.86
2022-12-16T07:18:52.726Z,89.29
2022-12-16T07:21:38.220Z,88.44
2022-12-16T07:24:23.750Z,88.04
2022-12-16T07:27:09.342Z,86.40
2022-12-16T07:29:54.298Z,86.60
2022-12-16T07:32:39.114Z,86.39
2022-12-16T07:35:24.909Z,84.45
2022-12-16T07:38:10.978Z,84.42
2022-12-16T07:40:55.723Z,84.72
2022-12-16T07:43:41.353Z,84.54
2022-12-16T07:46:26.759Z,85.69
2022-12-16T07:49:12.342Z,83.25
2022-12-16T07:51:57.603Z,86.58
2022-12-16T07:54:43.003Z,85.34
2022-12-16T07:57:28.075Z,85.10
2022-12-16T08:00:31.697Z,85.05
2022-12-16T08:03:16.740Z,85.56
2022-12-16T08:06:01.912Z,84.66
2022-12-16T08:15:54.889Z,83.15
2022-12-16T08:18:41.148Z,83.23
2022-12-16T08:21:26.018Z,82.92
2022-12-16T08:24:10.945Z,82.25
2022-12-16T08:26:55.810Z,81.10
2022-12-16T08:29:45.142Z,81.31
2022-12-16T08:32:31.978Z,82.41
2022-12-16T08:35:17.401Z,80.52
2022-12-16T08:38:03.046Z,79.60
2022-12-16T08:40:48.135Z,82.94
2022-12-16T08:43:34.617Z,80.97
2022-12-16T08:46:20.309Z,79.58
2022-12-16T08:49:05.684Z,78.27
2022-12-16T08:51:51.008Z,77.95
2022-12-16T08:54:36.195Z,77.60
2022-12-16T08:57:21.398Z,77.75
2022-12-16T09:00:06.590Z,77.08
2022-12-16T09:02:51.607Z,76.61
2022-12-16T09:05:38.012Z,76.71
2022-12-16T09:08:23.515Z,76.02
2022-12-16T09:11:08.917Z,76.11
2022-12-16T09:13:54.323Z,75.61
2022-12-16T09:16:40.146Z,76.12
2022-12-16T09:19:25.379Z,76.22
2022-12-16T09:22:10.516Z,76.19
2022-12-16T09:24:56.101Z,76.76
2022-12-16T09:27:41.616Z,77.15
2022-12-16T09:38:12.803Z,76.25
2022-12-16T09:41:00.156Z,75.80
2022-12-16T09:50:43.400Z,75.99
2022-12-16T09:53:34.510Z,76.31
2022-12-16T09:56:23.691Z,76.43
2022-12-16T09:59:21.679Z,76.85
2022-12-16T10:02:09.352Z,76.47
2022-12-16T10:04:55.001Z,76.52
2022-12-16T10:07:42.005Z,76.18
2022-12-16T10:11:08.629Z,76.29
2022-12-16T10:14:06.561Z,76.38
2022-12-16T10:17:07.699Z,76.32
2022-12-16T10:23:36.294Z,76.13
2022-12-16T10:26:32.775Z,76.55
2022-12-16T10:29:44.203Z,76.18
2022-12-16T10:32:51.518Z,76.17
2022-12-16T10:35:59.975Z,75.93
2022-12-16T10:39:23.738Z,75.86
2022-12-16T10:42:11.789Z,76.58
2022-12-16T10:45:13.705Z,76.21
2022-12-16T10:58:58.029Z,75.66
2022-12-16T11:01:47.179Z,75.46
2022-12-16T11:04:48.547Z,75.92
2022-12-16T11:10:51.657Z,77.00
2022-12-16T11:13:46.318Z,77.33
2022-12-16T11:16:45.799Z,77.06
2022-12-16T11:19:43.215Z,76.95
2022-12-16T11:29:37.780Z,77.57
2022-12-16T11:32:41.269Z,76.70
2022-12-16T11:35:33.862Z,76.53
2022-12-16T11:38:52.636Z,77.30
2022-12-16T11:41:48.451Z,76.86
2022-12-16T11:44:45.402Z,76.73
2022-12-16T11:47:50.895Z,77.13
2022-12-16T11:50:44.748Z,77.16
2022-12-16T11:53:45.058Z,77.03
2022-12-16T11:56:44.476Z,76.92
2022-12-16T11:59:57.318Z,76.82
2022-12-16T12:02:53.234Z,76.67
2022-12-16T12:06:17.241Z,77.07
2022-12-16T12:09:14.600Z,78.58
2022-12-16T12:12:10.454Z,79.89
2022-12-16T12:15:05.862Z,80.56
2022-12-16T12:18:00.303Z,80.68
2022-12-16T12:20:48.446Z,79.89
2022-12-16T12:34:32.794Z,79.42
2022-12-16T12:37:33.144Z,79.87
2022-12-16T12:40:34.178Z,79.37
2022-12-16T12:43:24.414Z,79.87
2022-12-16T12:46:17.435Z,79.34
2022-12-16T12:54:41.115Z,78.23
2022-12-16T13:00:33.897Z,77.48
2022-12-16T13:03:48.985Z,77.15
2022-12-16T13:06:35.291Z,77.05
2022-12-16T13:09:21.275Z,77.05
2022-12-16T13:12:24.892Z,76.71
2022-12-16T13:15:09.911Z,77.01
2022-12-16T13:25:53.783Z,76.64
2022-12-16T13:28:41.224Z,76.49
2022-12-16T13:31:27.585Z,76.25
2022-12-16T13:34:17.184Z,76.02
2022-12-16T13:37:04.936Z,75.96
2022-12-16T13:39:50.341Z,75.78
2022-12-16T13:43:09.091Z,75.56
2022-12-16T13:46:23.554Z,76.02
2022-12-16T13:49:09.075Z,76.31
2022-12-16T13:51:57.188Z,76.04
2022-12-16T13:55:01.560Z,75.93
2022-12-16T13:57:49.011Z,75.74
2022-12-16T14:00:46.178Z,76.17
2022-12-16T14:03:42.325Z,76.09
2022-12-16T14:06:38.835Z,77.68
2022-12-16T14:09:24.383Z,76.92
2022-12-16T14:12:21.963Z,77.76
2022-12-16T14:15:14.846Z,77.14
2022-12-16T14:18:16.475Z,76.85
2022-12-16T14:21:17.191Z,76.77
2022-12-16T14:24:31.323Z,76.45
2022-12-16T14:27:27.893Z,76.50
2022-12-16T14:30:14.275Z,76.12
2022-12-16T14:33:03.689Z,76.39
2022-12-16T14:35:48.897Z,75.99
2022-12-16T14:38:41.090Z,76.16
2022-12-16T14:41:31.148Z,76.09
2022-12-16T14:44:16.649Z,75.82
2022-12-16T14:47:02.127Z,75.74
2022-12-16T14:49:48.764Z,75.71
2022-12-16T14:52:38.617Z,75.60
2022-12-16T14:55:39.480Z,75.77
2022-12-16T14:58:37.361Z,75.94
2022-12-16T15:01:45.286Z,76.33
2022-12-16T15:04:40.699Z,76.68
2022-12-16T15:07:32.554Z,76.95
2022-12-16T15:10:18.643Z,76.39
2022-12-16T15:13:06.947Z,75.96
2022-12-16T15:16:25.718Z,76.16
2022-12-16T15:19:18.625Z,75.99
2022-12-16T15:22:04.106Z,76.41
2022-12-16T15:24:57.533Z,76.07
2022-12-16T15:27:44.572Z,76.32
2022-12-16T15:30:52.137Z,77.36
2022-12-16T15:33:43.681Z,78.10
2022-12-16T15:36:40.481Z,78.38
2022-12-16T15:39:53.213Z,78.43
2022-12-16T15:42:58.572Z,79.71
2022-12-16T15:45:50.762Z,78.77
2022-12-16T15:48:49.682Z,80.03
2022-12-16T15:52:06.927Z,79.22
2022-12-16T15:55:11.175Z,78.92
2022-12-16T16:03:12.522Z,77.54
2022-12-16T16:05:57.888Z,78.18
2022-12-16T16:08:42.740Z,79.12
2022-12-16T16:11:27.716Z,78.39
2022-12-16T16:19:43.092Z,78.41
2022-12-16T16:22:30.996Z,78.28
2022-12-16T16:25:24.364Z,79.10
2022-12-16T16:28:09.586Z,78.19
2022-12-16T16:30:54.571Z,78.52
2022-12-16T16:33:39.872Z,79.68
2022-12-16T16:36:34.469Z,79.89
2022-12-16T16:39:20.004Z,79.65
2022-12-16T16:42:05.464Z,79.84
2022-12-16T16:44:50.724Z,79.54
2022-12-16T16:47:36.527Z,78.99
2022-12-16T16:50:22.368Z,80.44
2022-12-16T16:53:07.391Z,79.00
2022-12-16T16:55:52.532Z,79.48
2022-12-16T16:58:45.860Z,79.57
2022-12-16T17:01:33.176Z,80.01
2022-12-16T17:04:19.156Z,79.53
2022-12-16T17:07:04.301Z,79.19
2022-12-16T17:09:49.745Z,78.79
2022-12-16T17:12:40.688Z,78.96
2022-12-16T17:15:38.573Z,80.61
2022-12-16T17:18:24.899Z,79.24
2022-12-16T17:21:10.397Z,79.15
2022-12-16T17:23:55.836Z,79.78
2022-12-16T17:26:42.283Z,79.85
2022-12-16T17:29:36.853Z,79.78
2022-12-16T17:32:24.302Z,80.60
2022-12-16T17:35:09.767Z,80.18
2022-12-16T17:37:55.620Z,81.10
2022-12-16T17:40:40.949Z,83.02
2022-12-16T17:43:26.480Z,81.98
2022-12-16T17:46:24.236Z,82.27
2022-12-16T17:49:10.796Z,81.07
2022-12-16T17:51:56.180Z,81.71
2022-12-16T17:54:41.600Z,82.14
2022-12-16T17:57:26.942Z,81.83
2022-12-16T18:02:54.980Z,82.23
2022-12-16T18:05:44.646Z,81.77
2022-12-16T18:08:32.172Z,81.81
2022-12-16T18:11:18.060Z,81.17
2022-12-16T18:14:03.112Z,79.35
2022-12-16T18:16:48.976Z,78.80
2022-12-16T18:19:35.144Z,78.93
2022-12-16T18:22:20.981Z,79.44
2022-12-16T18:25:05.976Z,78.65
2022-12-16T18:27:51.305Z,78.95
2022-12-16T18:30:41.911Z,78.68
2022-12-16T18:33:27.826Z,77.57
2022-12-16T18:36:12.614Z,77.17
2022-12-16T18:38:57.974Z,76.96
2022-12-16T18:41:43.415Z,77.41
2022-12-16T18:44:31.302Z,77.29
2022-12-16T18:47:16.756Z,76.94
2022-12-16T18:50:02.314Z,76.59
2022-12-16T18:52:47.870Z,76.70
2022-12-16T18:55:33.098Z,76.54
2022-12-16T18:58:42.560Z,76.44
2022-12-16T19:01:28.166Z,76.53
2022-12-16T19:04:14.980Z,76.38
2022-12-16T19:07:00.956Z,76.85
2022-12-16T19:09:46.437Z,76.79
2022-12-16T19:12:31.853Z,77.29
2022-12-16T19:15:16.877Z,77.24
2022-12-16T19:18:01.732Z,77.50
2022-12-16T19:20:47.013Z,77.79
2022-12-16T19:23:56.327Z,77.36
2022-12-16T19:26:41.709Z,78.08
2022-12-16T19:29:27.223Z,77.64
2022-12-16T19:32:12.966Z,79.11
2022-12-16T19:39:05.773Z,79.99
2022-12-16T19:41:51.143Z,79.79
2022-12-16T19:50:29.276Z,79.28
2022-12-16T20:10:28.733Z,82.37
2022-12-16T20:13:16.949Z,81.88
2022-12-16T20:41:47.214Z,82.99
2022-12-16T20:44:41.877Z,83.81
2022-12-16T20:47:27.239Z,83.30
2022-12-16T20:50:12.369Z,82.86
2022-12-16T20:53:19.441Z,83.38
2022-12-16T20:56:04.898Z,82.24
2022-12-16T20:58:50.140Z,82.37
2022-12-16T21:01:35.995Z,81.30
2022-12-16T21:10:31.790Z,81.30
2022-12-16T21:13:27.343Z,81.42
2022-12-16T21:16:15.547Z,81.61
2022-12-16T21:19:00.894Z,82.45
2022-12-16T21:21:46.255Z,83.37
2022-12-16T21:24:31.576Z,84.16
2022-12-16T21:27:16.930Z,84.20
2022-12-16T21:30:01.853Z,84.90
2022-12-16T21:32:47.331Z,84.79
2022-12-16T21:35:32.579Z,84.79
2022-12-16T21:38:17.866Z,84.14
2022-12-16T21:41:10.105Z,83.12
2022-12-16T21:43:54.972Z,81.66
2022-12-16T21:46:41.855Z,81.69
2022-12-16T21:49:27.594Z,81.78
2022-12-16T21:52:12.682Z,82.58
2022-12-16T21:54:58.303Z,82.12
2022-12-16T21:57:43.724Z,81.10
2022-12-16T22:00:29.608Z,79.91
2022-12-16T22:03:15.141Z,80.65
2022-12-16T22:06:00.089Z,81.12
2022-12-16T22:08:50.263Z,80.47
2022-12-16T22:11:35.698Z,80.48
2022-12-16T22:14:24.960Z,80.67
2022-12-16T22:17:38.767Z,80.79
2022-12-16T22:23:58.395Z,81.00
2022-12-16T22:26:43.374Z,80.16
2022-12-16T22:29:28.266Z,78.77
2022-12-16T22:32:13.548Z,80.67
2022-12-16T22:34:58.884Z,81.13
2022-12-16T22:40:19.251Z,80.07
2022-12-16T22:43:06.702Z,80.69
2022-12-16T22:45:53.122Z,81.10
2022-12-16T22:48:41.729Z,80.93
2022-12-16T22:51:31.042Z,80.47
2022-12-16T22:58:41.751Z,81.69
2022-12-16T23:01:27.116Z,82.36
2022-12-16T23:04:15.516Z,81.92
2022-12-16T23:07:17.197Z,81.31
2022-12-16T23:10:02.443Z,80.73
2022-12-16T23:13:06.123Z,80.79
2022-12-16T23:15:51.464Z,80.83
2022-12-16T23:18:37.373Z,80.93
2022-12-16T23:28:06.653Z,79.34
2022-12-16T23:30:54.781Z,79.58
2022-12-16T23:33:42.330Z,78.97
2022-12-16T23:36:27.366Z,79.29
2022-12-16T23:39:12.829Z,79.79
2022-12-16T23:41:58.488Z,80.59
2022-12-16T23:44:43.603Z,81.56
2022-12-16T23:47:48.479Z,82.14
2022-12-16T23:50:50.576Z,81.77
2022-12-16T23:53:36.036Z,81.56
2022-12-16T23:56:22.099Z,81.78
